sensor_id;sensor_type;location;lat;lon;timestamp;P1;durP1;ratioP1;P2;durP2;ratioP2
59970;SDS011;45825;45.434;9.116;2023-06-04T00:00:27;24.60;;;20.80;;
59970;SDS011;45825;45.434;9.116;2023-06-04T00:02:52;24.35;;;20.83;;
59970;SDS011;45825;45.434;9.116;2023-06-04T00:05:17;24.42;;;21.20;;
59970;SDS011;45825;45.434;9.116;2023-06-04T00:07:43;24.85;;;21.52;;
59970;SDS011;45825;45.434;9.116;2023-06-04T00:10:08;25.48;;;22.00;;
59970;SDS011;45825;45.434;9.116;2023-06-04T00:12:34;25.42;;;21.08;;
59970;SDS011;45825;45.434;9.116;2023-06-04T00:15:00;23.85;;;21.25;;
59970;SDS011;45825;45.434;9.116;2023-06-04T00:17:25;24.80;;;22.00;;
59970;SDS011;45825;45.434;9.116;2023-06-04T00:19:50;24.60;;;22.00;;
59970;SDS011;45825;45.434;9.116;2023-06-04T00:22:16;25.30;;;21.38;;
59970;SDS011;45825;45.434;9.116;2023-06-04T00:24:41;23.67;;;21.17;;
59970;SDS011;45825;45.434;9.116;2023-06-04T00:27:07;25.20;;;21.60;;
59970;SDS011;45825;45.434;9.116;2023-06-04T00:29:33;26.70;;;21.88;;
59970;SDS011;45825;45.434;9.116;2023-06-04T00:31:59;25.13;;;21.58;;
59970;SDS011;45825;45.434;9.116;2023-06-04T00:34:25;24.88;;;20.75;;
59970;SDS011;45825;45.434;9.116;2023-06-04T00:36:50;22.70;;;20.23;;
59970;SDS011;45825;45.434;9.116;2023-06-04T00:39:15;23.98;;;21.33;;
59970;SDS011;45825;45.434;9.116;2023-06-04T00:41:41;23.90;;;20.13;;
59970;SDS011;45825;45.434;9.116;2023-06-04T00:44:06;23.15;;;20.00;;
59970;SDS011;45825;45.434;9.116;2023-06-04T00:46:32;22.75;;;19.38;;
59970;SDS011;45825;45.434;9.116;2023-06-04T00:49:00;21.35;;;19.00;;
59970;SDS011;45825;45.434;9.116;2023-06-04T00:51:26;21.45;;;18.45;;
59970;SDS011;45825;45.434;9.116;2023-06-04T00:53:55;20.83;;;17.52;;
59970;SDS011;45825;45.434;9.116;2023-06-04T00:56:21;21.98;;;18.00;;
59970;SDS011;45825;45.434;9.116;2023-06-04T00:58:46;20.77;;;17.23;;
59970;SDS011;45825;45.434;9.116;2023-06-04T01:01:15;20.35;;;17.73;;
59970;SDS011;45825;45.434;9.116;2023-06-04T01:04:00;20.48;;;17.52;;
59970;SDS011;45825;45.434;9.116;2023-06-04T01:06:36;19.67;;;16.48;;
59970;SDS011;45825;45.434;9.116;2023-06-04T01:09:04;21.80;;;18.40;;
59970;SDS011;45825;45.434;9.116;2023-06-04T01:11:34;20.45;;;17.80;;
59970;SDS011;45825;45.434;9.116;2023-06-04T01:14:01;21.63;;;18.53;;
59970;SDS011;45825;45.434;9.116;2023-06-04T01:16:28;21.45;;;18.75;;
59970;SDS011;45825;45.434;9.116;2023-06-04T01:18:58;22.08;;;18.92;;
59970;SDS011;45825;45.434;9.116;2023-06-04T01:21:27;21.63;;;18.65;;
59970;SDS011;45825;45.434;9.116;2023-06-04T01:23:56;21.20;;;18.92;;
59970;SDS011;45825;45.434;9.116;2023-06-04T01:26:26;22.25;;;18.88;;
59970;SDS011;45825;45.434;9.116;2023-06-04T01:28:55;22.00;;;18.80;;
59970;SDS011;45825;45.434;9.116;2023-06-04T01:31:22;20.92;;;18.58;;
59970;SDS011;45825;45.434;9.116;2023-06-04T01:33:53;23.23;;;18.65;;
59970;SDS011;45825;45.434;9.116;2023-06-04T01:36:19;21.67;;;19.25;;
59970;SDS011;45825;45.434;9.116;2023-06-04T01:38:44;23.02;;;18.83;;
59970;SDS011;45825;45.434;9.116;2023-06-04T01:41:10;20.60;;;18.00;;
59970;SDS011;45825;45.434;9.116;2023-06-04T01:43:35;22.85;;;18.73;;
59970;SDS011;45825;45.434;9.116;2023-06-04T01:46:01;21.00;;;18.25;;
59970;SDS011;45825;45.434;9.116;2023-06-04T01:48:27;22.63;;;18.05;;
59970;SDS011;45825;45.434;9.116;2023-06-04T01:50:52;23.55;;;18.60;;
59970;SDS011;45825;45.434;9.116;2023-06-04T01:53:18;22.58;;;17.70;;
59970;SDS011;45825;45.434;9.116;2023-06-04T01:55:43;21.70;;;17.83;;
59970;SDS011;45825;45.434;9.116;2023-06-04T01:58:09;21.33;;;17.60;;
59970;SDS011;45825;45.434;9.116;2023-06-04T02:00:35;22.98;;;17.55;;
59970;SDS011;45825;45.434;9.116;2023-06-04T02:03:00;19.95;;;17.58;;
59970;SDS011;45825;45.434;9.116;2023-06-04T02:05:25;19.73;;;17.48;;
59970;SDS011;45825;45.434;9.116;2023-06-04T02:07:51;21.65;;;17.55;;
59970;SDS011;45825;45.434;9.116;2023-06-04T02:10:17;20.10;;;17.17;;
59970;SDS011;45825;45.434;9.116;2023-06-04T02:12:56;20.98;;;18.00;;
59970;SDS011;45825;45.434;9.116;2023-06-04T02:15:23;21.77;;;17.70;;
59970;SDS011;45825;45.434;9.116;2023-06-04T02:17:50;23.85;;;18.15;;
59970;SDS011;45825;45.434;9.116;2023-06-04T02:20:16;24.58;;;19.17;;
59970;SDS011;45825;45.434;9.116;2023-06-04T02:22:42;21.50;;;18.70;;
59970;SDS011;45825;45.434;9.116;2023-06-04T02:25:08;22.88;;;18.33;;
59970;SDS011;45825;45.434;9.116;2023-06-04T02:27:36;21.52;;;18.58;;
59970;SDS011;45825;45.434;9.116;2023-06-04T02:30:02;24.88;;;19.17;;
59970;SDS011;45825;45.434;9.116;2023-06-04T02:32:28;24.25;;;18.35;;
59970;SDS011;45825;45.434;9.116;2023-06-04T02:34:54;24.70;;;19.42;;
59970;SDS011;45825;45.434;9.116;2023-06-04T02:37:20;23.80;;;19.48;;
59970;SDS011;45825;45.434;9.116;2023-06-04T02:39:46;24.02;;;19.38;;
59970;SDS011;45825;45.434;9.116;2023-06-04T02:42:11;23.77;;;19.35;;
59970;SDS011;45825;45.434;9.116;2023-06-04T02:44:36;23.70;;;18.42;;
59970;SDS011;45825;45.434;9.116;2023-06-04T02:47:02;24.90;;;18.42;;
59970;SDS011;45825;45.434;9.116;2023-06-04T02:49:27;22.58;;;18.75;;
59970;SDS011;45825;45.434;9.116;2023-06-04T02:51:52;23.95;;;19.55;;
59970;SDS011;45825;45.434;9.116;2023-06-04T02:54:18;22.20;;;18.73;;
59970;SDS011;45825;45.434;9.116;2023-06-04T02:56:43;23.63;;;18.80;;
59970;SDS011;45825;45.434;9.116;2023-06-04T02:59:09;23.27;;;19.15;;
59970;SDS011;45825;45.434;9.116;2023-06-04T03:01:35;21.63;;;18.80;;
59970;SDS011;45825;45.434;9.116;2023-06-04T03:04:01;22.75;;;17.65;;
59970;SDS011;45825;45.434;9.116;2023-06-04T03:06:29;19.88;;;17.75;;
59970;SDS011;45825;45.434;9.116;2023-06-04T03:08:57;21.33;;;17.67;;
59970;SDS011;45825;45.434;9.116;2023-06-04T03:11:22;18.75;;;15.88;;
59970;SDS011;45825;45.434;9.116;2023-06-04T03:13:48;18.10;;;15.80;;
59970;SDS011;45825;45.434;9.116;2023-06-04T03:16:14;17.08;;;15.00;;
59970;SDS011;45825;45.434;9.116;2023-06-04T03:18:40;19.20;;;14.07;;
59970;SDS011;45825;45.434;9.116;2023-06-04T03:21:06;20.20;;;15.02;;
59970;SDS011;45825;45.434;9.116;2023-06-04T03:23:33;18.92;;;15.40;;
59970;SDS011;45825;45.434;9.116;2023-06-04T03:26:01;22.20;;;16.05;;
59970;SDS011;45825;45.434;9.116;2023-06-04T03:28:27;16.35;;;13.55;;
59970;SDS011;45825;45.434;9.116;2023-06-04T03:30:53;19.83;;;15.18;;
59970;SDS011;45825;45.434;9.116;2023-06-04T03:33:18;18.67;;;15.85;;
59970;SDS011;45825;45.434;9.116;2023-06-04T03:35:43;18.98;;;16.13;;
59970;SDS011;45825;45.434;9.116;2023-06-04T03:38:09;18.20;;;15.43;;
59970;SDS011;45825;45.434;9.116;2023-06-04T03:40:34;17.02;;;14.13;;
59970;SDS011;45825;45.434;9.116;2023-06-04T03:42:59;15.57;;;12.55;;
59970;SDS011;45825;45.434;9.116;2023-06-04T03:45:25;12.20;;;9.63;;
59970;SDS011;45825;45.434;9.116;2023-06-04T03:47:51;11.50;;;8.68;;
59970;SDS011;45825;45.434;9.116;2023-06-04T03:50:17;11.38;;;7.78;;
59970;SDS011;45825;45.434;9.116;2023-06-04T03:52:43;9.65;;;6.93;;
59970;SDS011;45825;45.434;9.116;2023-06-04T03:55:08;8.45;;;5.90;;
59970;SDS011;45825;45.434;9.116;2023-06-04T03:57:34;8.25;;;5.13;;
59970;SDS011;45825;45.434;9.116;2023-06-04T03:59:59;9.93;;;5.20;;
59970;SDS011;45825;45.434;9.116;2023-06-04T04:02:25;7.68;;;4.50;;
59970;SDS011;45825;45.434;9.116;2023-06-04T04:04:50;7.07;;;3.90;;
59970;SDS011;45825;45.434;9.116;2023-06-04T04:07:19;6.18;;;4.05;;
59970;SDS011;45825;45.434;9.116;2023-06-04T04:09:45;7.55;;;4.53;;
59970;SDS011;45825;45.434;9.116;2023-06-04T04:12:11;6.13;;;3.92;;
59970;SDS011;45825;45.434;9.116;2023-06-04T04:14:36;6.28;;;4.03;;
59970;SDS011;45825;45.434;9.116;2023-06-04T04:17:01;6.15;;;3.72;;
59970;SDS011;45825;45.434;9.116;2023-06-04T04:19:27;5.40;;;2.97;;
59970;SDS011;45825;45.434;9.116;2023-06-04T04:21:53;4.10;;;2.15;;
59970;SDS011;45825;45.434;9.116;2023-06-04T04:24:22;3.47;;;1.95;;
59970;SDS011;45825;45.434;9.116;2023-06-04T04:26:48;3.38;;;2.10;;
59970;SDS011;45825;45.434;9.116;2023-06-04T04:29:17;3.88;;;2.10;;
59970;SDS011;45825;45.434;9.116;2023-06-04T04:31:43;2.67;;;1.75;;
59970;SDS011;45825;45.434;9.116;2023-06-04T04:34:08;4.50;;;2.30;;
59970;SDS011;45825;45.434;9.116;2023-06-04T04:36:33;5.00;;;2.20;;
59970;SDS011;45825;45.434;9.116;2023-06-04T04:39:01;4.93;;;2.70;;
59970;SDS011;45825;45.434;9.116;2023-06-04T04:41:26;4.80;;;2.65;;
59970;SDS011;45825;45.434;9.116;2023-06-04T04:43:52;5.07;;;2.70;;
59970;SDS011;45825;45.434;9.116;2023-06-04T04:46:18;7.38;;;3.30;;
59970;SDS011;45825;45.434;9.116;2023-06-04T04:48:43;6.32;;;4.00;;
59970;SDS011;45825;45.434;9.116;2023-06-04T04:51:09;8.05;;;4.68;;
59970;SDS011;45825;45.434;9.116;2023-06-04T04:53:34;8.43;;;5.75;;
59970;SDS011;45825;45.434;9.116;2023-06-04T04:56:00;10.63;;;6.32;;
59970;SDS011;45825;45.434;9.116;2023-06-04T04:58:25;9.60;;;7.43;;
59970;SDS011;45825;45.434;9.116;2023-06-04T05:00:50;10.93;;;8.30;;
59970;SDS011;45825;45.434;9.116;2023-06-04T05:03:16;12.60;;;9.85;;
59970;SDS011;45825;45.434;9.116;2023-06-04T05:05:41;11.45;;;9.75;;
59970;SDS011;45825;45.434;9.116;2023-06-04T05:08:06;14.55;;;10.50;;
59970;SDS011;45825;45.434;9.116;2023-06-04T05:10:32;12.82;;;9.77;;
59970;SDS011;45825;45.434;9.116;2023-06-04T05:12:58;14.77;;;10.27;;
59970;SDS011;45825;45.434;9.116;2023-06-04T05:15:26;11.98;;;10.05;;
59970;SDS011;45825;45.434;9.116;2023-06-04T05:17:51;11.85;;;9.82;;
59970;SDS011;45825;45.434;9.116;2023-06-04T05:20:17;13.27;;;10.48;;
59970;SDS011;45825;45.434;9.116;2023-06-04T05:22:44;14.32;;;10.68;;
59970;SDS011;45825;45.434;9.116;2023-06-04T05:25:10;13.43;;;10.77;;
59970;SDS011;45825;45.434;9.116;2023-06-04T05:27:36;12.73;;;10.65;;
59970;SDS011;45825;45.434;9.116;2023-06-04T05:30:02;14.35;;;10.88;;
59970;SDS011;45825;45.434;9.116;2023-06-04T05:32:28;13.65;;;10.45;;
59970;SDS011;45825;45.434;9.116;2023-06-04T05:34:55;14.93;;;11.23;;
59970;SDS011;45825;45.434;9.116;2023-06-04T05:37:22;12.85;;;9.95;;
59970;SDS011;45825;45.434;9.116;2023-06-04T05:39:48;12.40;;;9.93;;
59970;SDS011;45825;45.434;9.116;2023-06-04T05:42:14;12.52;;;9.55;;
59970;SDS011;45825;45.434;9.116;2023-06-04T05:44:40;12.75;;;9.32;;
59970;SDS011;45825;45.434;9.116;2023-06-04T05:47:05;10.95;;;9.13;;
59970;SDS011;45825;45.434;9.116;2023-06-04T05:49:31;11.13;;;8.50;;
59970;SDS011;45825;45.434;9.116;2023-06-04T05:51:57;10.55;;;8.07;;
59970;SDS011;45825;45.434;9.116;2023-06-04T05:54:23;10.10;;;7.97;;
59970;SDS011;45825;45.434;9.116;2023-06-04T05:56:48;9.55;;;7.28;;
59970;SDS011;45825;45.434;9.116;2023-06-04T05:59:13;10.10;;;8.13;;
59970;SDS011;45825;45.434;9.116;2023-06-04T06:01:40;11.25;;;8.13;;
59970;SDS011;45825;45.434;9.116;2023-06-04T06:04:05;10.55;;;7.40;;
59970;SDS011;45825;45.434;9.116;2023-06-04T06:06:30;9.80;;;6.95;;
59970;SDS011;45825;45.434;9.116;2023-06-04T06:08:56;8.90;;;6.15;;
59970;SDS011;45825;45.434;9.116;2023-06-04T06:11:21;8.85;;;5.85;;
59970;SDS011;45825;45.434;9.116;2023-06-04T06:13:46;8.30;;;5.70;;
59970;SDS011;45825;45.434;9.116;2023-06-04T06:16:12;8.32;;;5.70;;
59970;SDS011;45825;45.434;9.116;2023-06-04T06:18:37;8.00;;;5.93;;
59970;SDS011;45825;45.434;9.116;2023-06-04T06:21:02;8.52;;;5.20;;
59970;SDS011;45825;45.434;9.116;2023-06-04T06:23:28;8.75;;;5.57;;
59970;SDS011;45825;45.434;9.116;2023-06-04T06:25:53;8.48;;;5.32;;
59970;SDS011;45825;45.434;9.116;2023-06-04T06:28:18;9.10;;;5.78;;
59970;SDS011;45825;45.434;9.116;2023-06-04T06:30:43;8.25;;;5.43;;
59970;SDS011;45825;45.434;9.116;2023-06-04T06:33:09;7.82;;;5.30;;
59970;SDS011;45825;45.434;9.116;2023-06-04T06:35:34;8.85;;;6.05;;
59970;SDS011;45825;45.434;9.116;2023-06-04T06:38:00;9.35;;;6.10;;
59970;SDS011;45825;45.434;9.116;2023-06-04T06:40:25;9.25;;;5.85;;
59970;SDS011;45825;45.434;9.116;2023-06-04T06:42:51;9.23;;;6.63;;
59970;SDS011;45825;45.434;9.116;2023-06-04T06:45:19;9.82;;;6.75;;
59970;SDS011;45825;45.434;9.116;2023-06-04T06:47:44;9.10;;;6.15;;
59970;SDS011;45825;45.434;9.116;2023-06-04T06:50:10;11.27;;;6.38;;
59970;SDS011;45825;45.434;9.116;2023-06-04T06:52:36;8.50;;;5.63;;
59970;SDS011;45825;45.434;9.116;2023-06-04T06:55:01;7.40;;;5.18;;
59970;SDS011;45825;45.434;9.116;2023-06-04T06:57:27;7.45;;;5.38;;
59970;SDS011;45825;45.434;9.116;2023-06-04T06:59:53;8.13;;;5.28;;
59970;SDS011;45825;45.434;9.116;2023-06-04T07:02:19;7.70;;;4.82;;
59970;SDS011;45825;45.434;9.116;2023-06-04T07:04:45;8.65;;;4.63;;
59970;SDS011;45825;45.434;9.116;2023-06-04T07:07:10;6.80;;;4.10;;
59970;SDS011;45825;45.434;9.116;2023-06-04T07:09:35;6.40;;;3.90;;
59970;SDS011;45825;45.434;9.116;2023-06-04T07:12:01;5.38;;;3.45;;
59970;SDS011;45825;45.434;9.116;2023-06-04T07:14:26;5.45;;;3.40;;
59970;SDS011;45825;45.434;9.116;2023-06-04T07:16:51;5.60;;;3.47;;
59970;SDS011;45825;45.434;9.116;2023-06-04T07:19:17;6.53;;;3.25;;
59970;SDS011;45825;45.434;9.116;2023-06-04T07:21:42;5.63;;;3.08;;
59970;SDS011;45825;45.434;9.116;2023-06-04T07:24:07;6.78;;;3.25;;
59970;SDS011;45825;45.434;9.116;2023-06-04T07:26:33;6.20;;;3.15;;
59970;SDS011;45825;45.434;9.116;2023-06-04T07:28:58;5.05;;;2.65;;
59970;SDS011;45825;45.434;9.116;2023-06-04T07:31:23;5.70;;;3.00;;
59970;SDS011;45825;45.434;9.116;2023-06-04T07:33:49;8.00;;;2.75;;
59970;SDS011;45825;45.434;9.116;2023-06-04T07:36:15;5.03;;;2.55;;
59970;SDS011;45825;45.434;9.116;2023-06-04T07:38:41;5.85;;;2.60;;
59970;SDS011;45825;45.434;9.116;2023-06-04T07:41:06;5.07;;;2.80;;
59970;SDS011;45825;45.434;9.116;2023-06-04T07:43:35;6.03;;;3.20;;
59970;SDS011;45825;45.434;9.116;2023-06-04T07:46:04;4.55;;;2.72;;
59970;SDS011;45825;45.434;9.116;2023-06-04T07:48:30;4.63;;;2.70;;
59970;SDS011;45825;45.434;9.116;2023-06-04T07:51:01;4.63;;;2.60;;
59970;SDS011;45825;45.434;9.116;2023-06-04T07:53:29;3.72;;;2.35;;
59970;SDS011;45825;45.434;9.116;2023-06-04T07:55:54;4.35;;;2.40;;
59970;SDS011;45825;45.434;9.116;2023-06-04T07:58:21;4.90;;;2.47;;
59970;SDS011;45825;45.434;9.116;2023-06-04T08:00:47;4.22;;;2.40;;
59970;SDS011;45825;45.434;9.116;2023-06-04T08:03:12;7.68;;;2.45;;
59970;SDS011;45825;45.434;9.116;2023-06-04T08:05:37;4.15;;;2.55;;
59970;SDS011;45825;45.434;9.116;2023-06-04T08:08:03;5.20;;;3.05;;
59970;SDS011;45825;45.434;9.116;2023-06-04T08:10:29;5.90;;;2.50;;
59970;SDS011;45825;45.434;9.116;2023-06-04T08:12:54;4.45;;;2.40;;
59970;SDS011;45825;45.434;9.116;2023-06-04T08:15:20;4.10;;;2.50;;
59970;SDS011;45825;45.434;9.116;2023-06-04T08:17:45;4.82;;;2.92;;
59970;SDS011;45825;45.434;9.116;2023-06-04T08:20:11;6.18;;;3.10;;
59970;SDS011;45825;45.434;9.116;2023-06-04T08:22:36;6.03;;;3.20;;
59970;SDS011;45825;45.434;9.116;2023-06-04T08:25:02;6.03;;;3.40;;
59970;SDS011;45825;45.434;9.116;2023-06-04T08:27:28;5.70;;;3.15;;
59970;SDS011;45825;45.434;9.116;2023-06-04T08:29:54;6.57;;;3.97;;
59970;SDS011;45825;45.434;9.116;2023-06-04T08:32:20;6.90;;;4.18;;
59970;SDS011;45825;45.434;9.116;2023-06-04T08:34:45;6.10;;;3.60;;
59970;SDS011;45825;45.434;9.116;2023-06-04T08:37:10;6.25;;;4.13;;
59970;SDS011;45825;45.434;9.116;2023-06-04T08:39:36;6.80;;;4.40;;
59970;SDS011;45825;45.434;9.116;2023-06-04T08:42:04;6.28;;;4.05;;
59970;SDS011;45825;45.434;9.116;2023-06-04T08:44:32;6.95;;;4.18;;
59970;SDS011;45825;45.434;9.116;2023-06-04T08:47:01;7.15;;;4.30;;
59970;SDS011;45825;45.434;9.116;2023-06-04T08:49:29;7.30;;;4.57;;
59970;SDS011;45825;45.434;9.116;2023-06-04T08:52:01;6.57;;;4.13;;
59970;SDS011;45825;45.434;9.116;2023-06-04T08:54:26;7.72;;;4.80;;
59970;SDS011;45825;45.434;9.116;2023-06-04T08:56:52;9.48;;;5.78;;
59970;SDS011;45825;45.434;9.116;2023-06-04T08:59:21;7.63;;;4.90;;
59970;SDS011;45825;45.434;9.116;2023-06-04T09:01:47;7.38;;;4.68;;
59970;SDS011;45825;45.434;9.116;2023-06-04T09:04:13;8.45;;;6.00;;
59970;SDS011;45825;45.434;9.116;2023-06-04T09:06:39;9.77;;;6.32;;
59970;SDS011;45825;45.434;9.116;2023-06-04T09:09:05;10.23;;;5.85;;
59970;SDS011;45825;45.434;9.116;2023-06-04T09:11:39;8.27;;;5.72;;
59970;SDS011;45825;45.434;9.116;2023-06-04T09:14:10;8.80;;;6.18;;
59970;SDS011;45825;45.434;9.116;2023-06-04T09:19:14;10.23;;;6.55;;
59970;SDS011;45825;45.434;9.116;2023-06-04T09:21:46;10.48;;;7.40;;
59970;SDS011;45825;45.434;9.116;2023-06-04T09:24:46;8.77;;;6.63;;
59970;SDS011;45825;45.434;9.116;2023-06-04T09:27:17;11.43;;;7.88;;
59970;SDS011;45825;45.434;9.116;2023-06-04T09:29:54;10.77;;;8.35;;
59970;SDS011;45825;45.434;9.116;2023-06-04T09:32:24;11.55;;;7.88;;
59970;SDS011;45825;45.434;9.116;2023-06-04T09:34:54;12.48;;;8.90;;
59970;SDS011;45825;45.434;9.116;2023-06-04T09:37:22;10.63;;;8.23;;
59970;SDS011;45825;45.434;9.116;2023-06-04T09:39:57;10.55;;;8.75;;
59970;SDS011;45825;45.434;9.116;2023-06-04T09:42:22;10.15;;;7.63;;
59970;SDS011;45825;45.434;9.116;2023-06-04T09:44:48;11.02;;;8.20;;
59970;SDS011;45825;45.434;9.116;2023-06-04T09:47:14;11.52;;;9.00;;
59970;SDS011;45825;45.434;9.116;2023-06-04T09:49:44;12.75;;;8.95;;
59970;SDS011;45825;45.434;9.116;2023-06-04T09:52:10;10.73;;;8.63;;
59970;SDS011;45825;45.434;9.116;2023-06-04T09:54:37;10.25;;;8.27;;
59970;SDS011;45825;45.434;9.116;2023-06-04T09:57:13;11.38;;;8.38;;
59970;SDS011;45825;45.434;9.116;2023-06-04T09:59:43;13.57;;;8.13;;
59970;SDS011;45825;45.434;9.116;2023-06-04T10:02:11;11.15;;;8.48;;
59970;SDS011;45825;45.434;9.116;2023-06-04T10:04:39;9.73;;;8.10;;
59970;SDS011;45825;45.434;9.116;2023-06-04T10:07:06;10.38;;;8.13;;
59970;SDS011;45825;45.434;9.116;2023-06-04T10:09:33;11.35;;;8.68;;
59970;SDS011;45825;45.434;9.116;2023-06-04T10:12:07;11.82;;;8.50;;
59970;SDS011;45825;45.434;9.116;2023-06-04T10:14:39;14.15;;;10.35;;
59970;SDS011;45825;45.434;9.116;2023-06-04T10:17:09;17.38;;;12.60;;
59970;SDS011;45825;45.434;9.116;2023-06-04T10:19:37;13.70;;;11.50;;
59970;SDS011;45825;45.434;9.116;2023-06-04T10:22:05;14.68;;;12.10;;
59970;SDS011;45825;45.434;9.116;2023-06-04T10:24:30;15.05;;;11.48;;
59970;SDS011;45825;45.434;9.116;2023-06-04T10:26:59;14.82;;;11.90;;
59970;SDS011;45825;45.434;9.116;2023-06-04T10:29:25;16.42;;;12.88;;
59970;SDS011;45825;45.434;9.116;2023-06-04T10:31:54;17.30;;;12.60;;
59970;SDS011;45825;45.434;9.116;2023-06-04T10:34:20;15.57;;;12.65;;
59970;SDS011;45825;45.434;9.116;2023-06-04T10:36:45;15.00;;;11.20;;
59970;SDS011;45825;45.434;9.116;2023-06-04T10:39:11;14.20;;;10.43;;
59970;SDS011;45825;45.434;9.116;2023-06-04T10:41:37;12.05;;;8.80;;
59970;SDS011;45825;45.434;9.116;2023-06-04T10:44:02;11.80;;;8.30;;
59970;SDS011;45825;45.434;9.116;2023-06-04T10:46:37;11.13;;;7.75;;
59970;SDS011;45825;45.434;9.116;2023-06-04T10:49:07;8.18;;;5.00;;
59970;SDS011;45825;45.434;9.116;2023-06-04T10:51:35;7.80;;;4.70;;
59970;SDS011;45825;45.434;9.116;2023-06-04T10:54:02;7.88;;;4.47;;
59970;SDS011;45825;45.434;9.116;2023-06-04T10:56:31;6.47;;;3.97;;
59970;SDS011;45825;45.434;9.116;2023-06-04T10:58:58;5.93;;;3.92;;
59970;SDS011;45825;45.434;9.116;2023-06-04T11:01:29;6.22;;;3.60;;
59970;SDS011;45825;45.434;9.116;2023-06-04T11:03:56;6.20;;;4.47;;
59970;SDS011;45825;45.434;9.116;2023-06-04T11:06:22;7.68;;;5.50;;
59970;SDS011;45825;45.434;9.116;2023-06-04T11:09:00;8.90;;;6.07;;
59970;SDS011;45825;45.434;9.116;2023-06-04T11:11:27;8.45;;;5.60;;
59970;SDS011;45825;45.434;9.116;2023-06-04T11:13:52;7.93;;;5.43;;
59970;SDS011;45825;45.434;9.116;2023-06-04T11:16:18;6.97;;;5.07;;
59970;SDS011;45825;45.434;9.116;2023-06-04T11:18:54;6.35;;;4.32;;
59970;SDS011;45825;45.434;9.116;2023-06-04T11:21:21;7.25;;;4.50;;
59970;SDS011;45825;45.434;9.116;2023-06-04T11:23:47;7.07;;;4.50;;
59970;SDS011;45825;45.434;9.116;2023-06-04T11:26:12;7.85;;;4.70;;
59970;SDS011;45825;45.434;9.116;2023-06-04T11:28:38;9.55;;;4.95;;
59970;SDS011;45825;45.434;9.116;2023-06-04T11:31:05;7.15;;;4.30;;
59970;SDS011;45825;45.434;9.116;2023-06-04T11:33:51;7.72;;;4.63;;
59970;SDS011;45825;45.434;9.116;2023-06-04T11:36:26;7.10;;;4.28;;
59970;SDS011;45825;45.434;9.116;2023-06-04T11:38:59;6.15;;;3.63;;
59970;SDS011;45825;45.434;9.116;2023-06-04T11:41:32;9.30;;;3.25;;
59970;SDS011;45825;45.434;9.116;2023-06-04T11:44:00;6.85;;;3.95;;
59970;SDS011;45825;45.434;9.116;2023-06-04T11:46:28;7.68;;;4.40;;
59970;SDS011;45825;45.434;9.116;2023-06-04T11:48:54;8.75;;;5.50;;
59970;SDS011;45825;45.434;9.116;2023-06-04T11:51:22;10.30;;;6.10;;
59970;SDS011;45825;45.434;9.116;2023-06-04T11:53:48;11.55;;;7.25;;
59970;SDS011;45825;45.434;9.116;2023-06-04T11:56:14;9.20;;;6.47;;
59970;SDS011;45825;45.434;9.116;2023-06-04T11:58:40;9.13;;;6.93;;
59970;SDS011;45825;45.434;9.116;2023-06-04T12:01:06;9.73;;;6.97;;
59970;SDS011;45825;45.434;9.116;2023-06-04T12:03:39;9.63;;;7.40;;
59970;SDS011;45825;45.434;9.116;2023-06-04T12:06:12;9.65;;;7.35;;
59970;SDS011;45825;45.434;9.116;2023-06-04T12:08:47;6.85;;;4.80;;
59970;SDS011;45825;45.434;9.116;2023-06-04T12:11:31;8.18;;;5.88;;
59970;SDS011;45825;45.434;9.116;2023-06-04T12:14:03;9.57;;;6.47;;
59970;SDS011;45825;45.434;9.116;2023-06-04T12:16:30;8.57;;;5.93;;
59970;SDS011;45825;45.434;9.116;2023-06-04T12:19:06;8.93;;;5.63;;
59970;SDS011;45825;45.434;9.116;2023-06-04T12:21:36;9.57;;;5.75;;
59970;SDS011;45825;45.434;9.116;2023-06-04T12:24:20;7.60;;;5.65;;
59970;SDS011;45825;45.434;9.116;2023-06-04T12:26:45;8.18;;;4.50;;
59970;SDS011;45825;45.434;9.116;2023-06-04T12:29:11;8.00;;;4.20;;
59970;SDS011;45825;45.434;9.116;2023-06-04T12:31:38;7.20;;;5.03;;
59970;SDS011;45825;45.434;9.116;2023-06-04T12:34:07;6.97;;;4.18;;
59970;SDS011;45825;45.434;9.116;2023-06-04T12:36:32;8.07;;;4.65;;
59970;SDS011;45825;45.434;9.116;2023-06-04T12:38:59;7.50;;;5.13;;
59970;SDS011;45825;45.434;9.116;2023-06-04T12:41:29;5.82;;;3.85;;
59970;SDS011;45825;45.434;9.116;2023-06-04T12:43:55;9.23;;;4.07;;
59970;SDS011;45825;45.434;9.116;2023-06-04T12:46:21;5.78;;;3.50;;
59970;SDS011;45825;45.434;9.116;2023-06-04T12:48:47;5.75;;;3.30;;
59970;SDS011;45825;45.434;9.116;2023-06-04T12:51:13;6.45;;;3.33;;
59970;SDS011;45825;45.434;9.116;2023-06-04T12:53:39;8.02;;;2.90;;
59970;SDS011;45825;45.434;9.116;2023-06-04T12:56:05;5.10;;;2.90;;
59970;SDS011;45825;45.434;9.116;2023-06-04T12:58:30;5.85;;;3.20;;
59970;SDS011;45825;45.434;9.116;2023-06-04T13:00:55;6.03;;;3.00;;
59970;SDS011;45825;45.434;9.116;2023-06-04T13:03:20;6.45;;;3.22;;
59970;SDS011;45825;45.434;9.116;2023-06-04T13:05:46;4.28;;;2.97;;
59970;SDS011;45825;45.434;9.116;2023-06-04T13:08:11;3.80;;;2.65;;
59970;SDS011;45825;45.434;9.116;2023-06-04T13:10:36;4.93;;;2.95;;
59970;SDS011;45825;45.434;9.116;2023-06-04T13:13:02;7.30;;;3.30;;
59970;SDS011;45825;45.434;9.116;2023-06-04T13:15:27;4.85;;;2.92;;
59970;SDS011;45825;45.434;9.116;2023-06-04T13:17:54;5.30;;;2.70;;
59970;SDS011;45825;45.434;9.116;2023-06-04T13:20:19;5.38;;;3.03;;
59970;SDS011;45825;45.434;9.116;2023-06-04T13:22:45;4.80;;;2.88;;
59970;SDS011;45825;45.434;9.116;2023-06-04T13:25:10;4.30;;;2.80;;
59970;SDS011;45825;45.434;9.116;2023-06-04T13:27:35;5.75;;;3.75;;
59970;SDS011;45825;45.434;9.116;2023-06-04T13:30:01;6.05;;;3.78;;
59970;SDS011;45825;45.434;9.116;2023-06-04T13:32:26;5.75;;;3.53;;
59970;SDS011;45825;45.434;9.116;2023-06-04T13:34:51;6.22;;;3.15;;
59970;SDS011;45825;45.434;9.116;2023-06-04T13:37:16;5.88;;;2.97;;
59970;SDS011;45825;45.434;9.116;2023-06-04T13:39:42;5.05;;;2.90;;
59970;SDS011;45825;45.434;9.116;2023-06-04T13:42:07;6.00;;;3.30;;
59970;SDS011;45825;45.434;9.116;2023-06-04T13:44:32;7.15;;;3.58;;
59970;SDS011;45825;45.434;9.116;2023-06-04T13:46:58;6.00;;;3.22;;
59970;SDS011;45825;45.434;9.116;2023-06-04T13:49:24;5.45;;;3.22;;
59970;SDS011;45825;45.434;9.116;2023-06-04T13:51:50;6.40;;;3.20;;
59970;SDS011;45825;45.434;9.116;2023-06-04T13:54:15;5.75;;;3.72;;
59970;SDS011;45825;45.434;9.116;2023-06-04T13:56:40;7.28;;;3.67;;
59970;SDS011;45825;45.434;9.116;2023-06-04T13:59:06;5.90;;;3.97;;
59970;SDS011;45825;45.434;9.116;2023-06-04T14:01:31;6.40;;;3.97;;
59970;SDS011;45825;45.434;9.116;2023-06-04T14:03:56;5.57;;;3.50;;
59970;SDS011;45825;45.434;9.116;2023-06-04T14:06:23;6.25;;;3.28;;
59970;SDS011;45825;45.434;9.116;2023-06-04T14:08:49;5.35;;;3.30;;
59970;SDS011;45825;45.434;9.116;2023-06-04T14:11:14;5.43;;;3.50;;
59970;SDS011;45825;45.434;9.116;2023-06-04T14:13:40;6.35;;;4.20;;
59970;SDS011;45825;45.434;9.116;2023-06-04T14:16:06;6.93;;;4.53;;
59970;SDS011;45825;45.434;9.116;2023-06-04T14:18:31;6.20;;;3.78;;
59970;SDS011;45825;45.434;9.116;2023-06-04T14:20:57;6.68;;;3.90;;
59970;SDS011;45825;45.434;9.116;2023-06-04T14:23:22;6.60;;;4.33;;
59970;SDS011;45825;45.434;9.116;2023-06-04T14:25:47;6.22;;;4.13;;
59970;SDS011;45825;45.434;9.116;2023-06-04T14:28:12;6.35;;;3.90;;
59970;SDS011;45825;45.434;9.116;2023-06-04T14:30:38;7.05;;;4.53;;
59970;SDS011;45825;45.434;9.116;2023-06-04T14:33:03;9.52;;;5.40;;
59970;SDS011;45825;45.434;9.116;2023-06-04T14:35:28;6.38;;;4.57;;
59970;SDS011;45825;45.434;9.116;2023-06-04T14:37:54;9.52;;;4.78;;